createdAt,value
2018-07-24T00:00:35.229Z,18.44
2018-07-24T00:03:02.555Z,18.43
2018-07-24T00:05:29.455Z,18.41
2018-07-24T00:07:57.010Z,18.36
2018-07-24T00:10:24.353Z,18.30
2018-07-24T00:12:51.294Z,18.23
2018-07-24T00:15:18.595Z,18.22
2018-07-24T00:17:47.636Z,18.23
2018-07-24T00:20:14.676Z,18.32
2018-07-24T00:22:41.580Z,18.21
2018-07-24T00:25:09.065Z,18.17
2018-07-24T00:27:36.595Z,18.15
2018-07-24T00:30:04.032Z,18.02
2018-07-24T00:32:32.066Z,17.99
2018-07-24T00:34:59.792Z,18.02
2018-07-24T00:37:26.828Z,18.00
2018-07-24T00:39:54.903Z,18.03
2018-07-24T00:42:22.123Z,18.01
2018-07-24T00:44:49.356Z,17.96
2018-07-24T00:47:16.514Z,17.96
2018-07-24T00:49:43.533Z,17.93
2018-07-24T00:52:10.404Z,17.93
2018-07-24T00:54:37.271Z,17.87
2018-07-24T00:57:04.336Z,17.83
2018-07-24T00:59:31.269Z,17.80
2018-07-24T01:01:58.140Z,17.77
2018-07-24T01:04:25.067Z,17.69
2018-07-24T01:06:51.945Z,17.64
2018-07-24T01:09:18.882Z,17.70
2018-07-24T01:11:46.253Z,17.78
2018-07-24T01:14:13.148Z,17.69
2018-07-24T01:16:40.018Z,17.65
2018-07-24T01:19:06.907Z,17.59
2018-07-24T01:21:33.810Z,17.59
2018-07-24T01:24:00.719Z,17.58
2018-07-24T01:26:27.608Z,17.56
2018-07-24T01:28:54.495Z,17.51
2018-07-24T01:31:21.380Z,17.49
2018-07-24T01:33:48.265Z,17.42
2018-07-24T01:36:15.168Z,17.34
2018-07-24T01:38:42.161Z,17.45
2018-07-24T01:41:09.053Z,17.52
2018-07-24T01:43:35.945Z,17.50
2018-07-24T01:46:02.852Z,17.43
2018-07-24T01:48:29.735Z,17.42
2018-07-24T01:50:56.645Z,17.38
2018-07-24T01:53:23.516Z,17.29
2018-07-24T01:55:50.401Z,17.26
2018-07-24T01:58:17.268Z,17.19
2018-07-24T02:00:44.223Z,17.28
2018-07-24T02:03:11.158Z,17.37
2018-07-24T02:05:38.044Z,17.29
2018-07-24T02:08:04.919Z,17.30
2018-07-24T02:10:31.812Z,17.32
2018-07-24T02:12:58.766Z,17.24
2018-07-24T02:15:25.657Z,17.14
2018-07-24T02:17:52.551Z,17.12
2018-07-24T02:20:19.439Z,17.15
2018-07-24T02:22:46.316Z,17.15
2018-07-24T02:25:13.217Z,17.06
2018-07-24T02:27:40.093Z,16.92
2018-07-24T02:30:07.203Z,16.91
2018-07-24T02:32:34.087Z,16.94
2018-07-24T02:35:00.972Z,16.95
2018-07-24T02:37:27.860Z,16.93
2018-07-24T02:39:54.753Z,16.86
2018-07-24T02:42:21.645Z,16.77
2018-07-24T02:44:48.544Z,16.71
2018-07-24T02:47:15.440Z,16.62
2018-07-24T02:49:42.324Z,16.65
2018-07-24T02:52:09.208Z,16.69
2018-07-24T02:54:36.089Z,16.67
2018-07-24T02:57:02.976Z,16.61
2018-07-24T02:59:29.867Z,16.58
2018-07-24T03:01:56.776Z,16.65
2018-07-24T03:04:23.661Z,16.74
2018-07-24T03:06:50.560Z,16.67
2018-07-24T03:09:17.445Z,16.65
2018-07-24T03:11:44.328Z,16.64
2018-07-24T03:14:11.210Z,16.63
2018-07-24T03:16:38.145Z,16.56
2018-07-24T03:19:05.049Z,16.53
2018-07-24T03:21:31.957Z,16.55
2018-07-24T03:23:58.840Z,16.55
2018-07-24T03:26:25.815Z,16.57
2018-07-24T03:28:52.711Z,16.64
2018-07-24T03:31:19.627Z,16.62
2018-07-24T03:33:46.525Z,16.67
2018-07-24T03:36:13.432Z,16.79
2018-07-24T03:38:40.364Z,16.84
2018-07-24T03:41:07.268Z,16.86
2018-07-24T03:43:34.143Z,16.90
2018-07-24T03:46:01.080Z,16.90
2018-07-24T03:48:27.990Z,16.90
2018-07-24T03:50:54.876Z,16.88
2018-07-24T03:53:21.773Z,16.90
2018-07-24T03:55:48.680Z,16.88
2018-07-24T03:58:15.575Z,16.93
2018-07-24T04:00:42.464Z,16.93
2018-07-24T04:03:09.351Z,16.91
2018-07-24T04:05:36.262Z,16.89
2018-07-24T04:08:03.151Z,16.89
2018-07-24T04:10:30.051Z,16.96
2018-07-24T04:12:56.944Z,16.99
2018-07-24T04:15:23.829Z,17.04
2018-07-24T04:17:50.721Z,17.10
2018-07-24T04:20:17.625Z,17.10
2018-07-24T04:22:44.522Z,17.07
2018-07-24T04:25:11.409Z,17.06
2018-07-24T04:27:38.313Z,17.11
2018-07-24T04:30:05.480Z,17.31
2018-07-24T04:32:32.509Z,17.35
2018-07-24T04:34:59.418Z,17.43
2018-07-24T04:37:26.329Z,17.53
2018-07-24T04:39:53.250Z,17.56
2018-07-24T04:42:20.155Z,17.57
2018-07-24T04:44:47.036Z,17.62
2018-07-24T04:47:13.936Z,17.72
2018-07-24T04:49:41.097Z,17.81
2018-07-24T04:52:08.036Z,17.96
2018-07-24T04:54:34.936Z,18.08
2018-07-24T04:57:01.835Z,18.16
2018-07-24T04:59:28.717Z,18.24
2018-07-24T05:01:55.663Z,18.34
2018-07-24T05:04:22.520Z,18.44
2018-07-24T05:06:49.410Z,18.50
2018-07-24T05:09:16.292Z,18.57
2018-07-24T05:11:43.731Z,18.72
2018-07-24T05:14:10.889Z,18.79
2018-07-24T05:16:37.862Z,18.88
2018-07-24T05:19:05.590Z,18.98
2018-07-24T05:21:32.490Z,19.06
2018-07-24T05:23:59.371Z,19.09
2018-07-24T05:26:26.272Z,19.14
2018-07-24T05:28:53.212Z,19.19
2018-07-24T05:31:20.104Z,19.26
2018-07-24T05:33:47.028Z,19.42
2018-07-24T05:36:13.915Z,19.43
2018-07-24T05:38:40.867Z,19.55
2018-07-24T05:41:07.925Z,19.83
2018-07-24T05:43:34.819Z,19.99
2018-07-24T05:46:01.824Z,20.27
2018-07-24T05:48:28.961Z,20.75
2018-07-24T05:50:55.866Z,20.77
2018-07-24T05:53:22.764Z,20.63
2018-07-24T05:55:49.652Z,20.62
2018-07-24T05:58:16.548Z,21.12
2018-07-24T06:00:43.437Z,21.24
2018-07-24T06:03:10.344Z,21.54
2018-07-24T06:05:37.273Z,21.59
2018-07-24T06:08:04.183Z,21.76
2018-07-24T06:10:31.101Z,21.70
2018-07-24T06:12:58.020Z,21.58
2018-07-24T06:15:24.908Z,21.83
2018-07-24T06:17:51.816Z,21.85
2018-07-24T06:20:18.710Z,22.17
2018-07-24T06:22:45.612Z,22.20
2018-07-24T06:25:12.536Z,22.01
2018-07-24T06:27:39.426Z,21.78
2018-07-24T06:30:06.641Z,21.81
2018-07-24T06:32:33.529Z,22.12
2018-07-24T06:35:00.422Z,22.21
2018-07-24T06:37:27.324Z,22.43
2018-07-24T06:39:54.188Z,22.34
2018-07-24T06:42:21.101Z,22.70
2018-07-24T06:44:47.998Z,22.74
2018-07-24T06:47:14.892Z,23.21
2018-07-24T06:49:41.785Z,23.09
2018-07-24T06:52:08.674Z,23.18
2018-07-24T06:54:35.582Z,23.03
2018-07-24T06:57:02.752Z,23.18
2018-07-24T06:59:29.640Z,22.94
2018-07-24T07:01:56.544Z,23.38
2018-07-24T07:04:23.427Z,23.68
2018-07-24T07:06:50.304Z,23.69
2018-07-24T07:09:17.238Z,23.51
2018-07-24T07:11:44.084Z,24.25
2018-07-24T07:14:10.982Z,24.24
2018-07-24T07:16:37.865Z,24.75
2018-07-24T07:19:04.786Z,24.96
2018-07-24T07:21:31.699Z,24.30
2018-07-24T07:23:58.763Z,24.72
2018-07-24T07:26:25.657Z,25.15
2018-07-24T07:28:52.568Z,24.89
2018-07-24T07:31:19.448Z,25.01
2018-07-24T07:33:46.339Z,25.15
2018-07-24T07:36:13.249Z,25.68
2018-07-24T07:38:40.140Z,25.76
2018-07-24T07:41:07.046Z,25.85
2018-07-24T07:43:33.956Z,25.51
2018-07-24T07:46:00.883Z,25.83
2018-07-24T07:48:27.764Z,26.20
2018-07-24T07:50:54.644Z,26.79
2018-07-24T07:53:21.533Z,27.05
2018-07-24T07:55:48.403Z,26.70
2018-07-24T07:58:15.305Z,26.99
2018-07-24T08:00:42.189Z,27.27
2018-07-24T08:03:09.109Z,26.49
2018-07-24T08:05:36.023Z,25.85
2018-07-24T08:08:03.012Z,25.85
2018-07-24T08:10:29.887Z,26.38
2018-07-24T08:12:56.844Z,26.72
2018-07-24T08:15:23.732Z,26.72
2018-07-24T08:17:50.621Z,26.76
2018-07-24T08:20:17.504Z,27.89
2018-07-24T08:22:44.384Z,27.35
2018-07-24T08:25:11.289Z,27.10
2018-07-24T08:27:38.180Z,26.86
2018-07-24T08:30:05.894Z,27.37
2018-07-24T08:32:32.830Z,27.02
2018-07-24T08:34:59.732Z,27.33
2018-07-24T08:37:26.624Z,27.93
2018-07-24T08:39:53.536Z,28.67
2018-07-24T08:42:20.424Z,28.65
2018-07-24T08:44:47.417Z,27.54
2018-07-24T08:47:14.280Z,28.26
2018-07-24T08:49:41.175Z,28.05
2018-07-24T08:52:08.221Z,27.75
2018-07-24T08:54:35.269Z,27.76
2018-07-24T08:57:02.040Z,28.12
2018-07-24T08:59:29.033Z,28.34
2018-07-24T09:01:55.929Z,28.96
2018-07-24T09:04:22.821Z,27.68
2018-07-24T09:06:49.764Z,27.86
2018-07-24T09:09:16.667Z,28.48
2018-07-24T09:11:43.551Z,28.66
2018-07-24T09:14:10.650Z,27.79
2018-07-24T09:16:37.988Z,28.15
2018-07-24T09:19:04.884Z,29.14
2018-07-24T09:21:31.795Z,29.98
2018-07-24T09:23:58.701Z,28.93
2018-07-24T09:26:25.595Z,28.42
2018-07-24T09:28:52.492Z,28.77
2018-07-24T09:31:19.419Z,28.28
2018-07-24T09:33:46.308Z,28.31
2018-07-24T09:36:13.205Z,28.52
2018-07-24T09:38:40.074Z,28.68
2018-07-24T09:41:07.012Z,28.34
2018-07-24T09:43:33.899Z,29.53
2018-07-24T09:46:00.829Z,28.97
2018-07-24T09:48:27.771Z,28.79
2018-07-24T09:50:54.684Z,29.18
2018-07-24T09:53:21.565Z,28.54
2018-07-24T09:55:48.480Z,29.11
2018-07-24T09:58:15.372Z,29.73
2018-07-24T10:00:47.992Z,30.32
2018-07-24T10:03:14.876Z,29.42
2018-07-24T10:05:41.900Z,29.56
2018-07-24T10:08:08.838Z,29.43
2018-07-24T10:10:35.747Z,28.97
2018-07-24T10:13:02.748Z,29.79
2018-07-24T10:15:29.540Z,29.85
2018-07-24T10:17:56.420Z,30.59
2018-07-24T10:20:23.336Z,29.68
2018-07-24T10:22:50.246Z,29.96
2018-07-24T10:25:17.161Z,30.28
2018-07-24T10:27:44.053Z,29.91
2018-07-24T10:30:10.954Z,29.99
2018-07-24T10:32:37.843Z,31.20
2018-07-24T10:35:05.023Z,31.04
2018-07-24T10:37:31.921Z,31.68
2018-07-24T10:39:58.828Z,31.77
2018-07-24T10:42:25.736Z,31.39
2018-07-24T10:44:52.643Z,30.05
2018-07-24T10:47:19.551Z,30.31
2018-07-24T10:49:46.504Z,30.55
2018-07-24T10:52:13.415Z,30.63
2018-07-24T10:54:40.319Z,29.86
2018-07-24T10:57:07.419Z,30.40
2018-07-24T10:59:34.320Z,31.57
2018-07-24T11:02:01.265Z,31.80
2018-07-24T11:04:28.277Z,32.71
2018-07-24T11:06:55.196Z,32.35
2018-07-24T11:09:22.099Z,29.94
2018-07-24T11:11:49.022Z,29.66
2018-07-24T11:14:15.944Z,29.39
2018-07-24T11:16:42.892Z,29.60
2018-07-24T11:19:09.844Z,28.84
2018-07-24T11:21:36.816Z,29.85
2018-07-24T11:24:03.765Z,31.09
2018-07-24T11:26:30.924Z,30.80
2018-07-24T11:28:57.833Z,30.01
2018-07-24T11:31:24.744Z,31.20
2018-07-24T11:33:52.049Z,31.25
2018-07-24T11:36:19.102Z,31.18
2018-07-24T11:38:45.928Z,30.23
2018-07-24T11:41:12.845Z,30.68
2018-07-24T11:43:39.760Z,31.55
2018-07-24T11:46:07.040Z,31.87
2018-07-24T11:48:33.963Z,32.61
2018-07-24T11:51:00.903Z,32.50
2018-07-24T11:53:28.378Z,32.26
2018-07-24T11:55:55.349Z,31.22
2018-07-24T11:58:22.636Z,30.98
2018-07-24T12:00:51.918Z,32.49
2018-07-24T12:03:19.082Z,33.11
2018-07-24T12:05:46.029Z,31.79
2018-07-24T12:08:16.032Z,31.98
2018-07-24T12:10:43.214Z,31.46
2018-07-24T12:13:10.148Z,32.83
2018-07-24T12:15:37.109Z,33.08
2018-07-24T12:18:06.269Z,33.20
2018-07-24T12:20:35.202Z,33.71
2018-07-24T12:23:02.385Z,33.85
2018-07-24T12:25:29.375Z,33.83
2018-07-24T12:28:02.202Z,33.84
2018-07-24T12:30:30.840Z,32.99
2018-07-24T12:32:58.876Z,32.70
2018-07-24T12:35:28.179Z,32.71
2018-07-24T12:37:55.110Z,32.06
2018-07-24T12:40:22.037Z,31.32
2018-07-24T12:42:48.995Z,32.57
2018-07-24T12:45:15.902Z,32.67
2018-07-24T12:47:42.812Z,32.74
2018-07-24T12:50:09.746Z,32.91
2018-07-24T12:52:36.712Z,32.01
2018-07-24T12:55:03.633Z,32.42
2018-07-24T12:57:30.564Z,31.47
2018-07-24T12:59:57.487Z,32.50
2018-07-24T13:02:24.400Z,32.84
2018-07-24T13:04:51.325Z,33.40
2018-07-24T13:07:18.322Z,33.62
2018-07-24T13:09:45.226Z,33.53
2018-07-24T13:12:12.171Z,32.95
2018-07-24T13:14:39.088Z,32.66
2018-07-24T13:17:06.035Z,32.29
2018-07-24T13:19:33.041Z,33.65
2018-07-24T13:22:00.025Z,33.70
2018-07-24T13:24:26.942Z,33.04
2018-07-24T13:26:53.860Z,33.20
2018-07-24T13:29:20.772Z,32.59
2018-07-24T13:31:47.728Z,31.41
2018-07-24T13:34:14.652Z,31.89
2018-07-24T13:36:41.685Z,33.03
2018-07-24T13:39:09.735Z,32.88
2018-07-24T13:41:36.680Z,32.75
2018-07-24T13:44:03.588Z,32.75
2018-07-24T13:46:30.510Z,33.16
2018-07-24T13:48:57.666Z,33.12
2018-07-24T13:51:24.580Z,32.48
2018-07-24T13:53:51.508Z,31.95
2018-07-24T13:56:18.501Z,32.45
2018-07-24T13:58:45.370Z,33.18
2018-07-24T14:01:12.288Z,32.80
2018-07-24T14:03:39.251Z,33.62
2018-07-24T14:06:06.205Z,33.91
2018-07-24T14:08:33.263Z,33.53
2018-07-24T14:11:00.166Z,33.22
2018-07-24T14:13:27.079Z,33.08
2018-07-24T14:15:54.000Z,33.08
2018-07-24T14:18:20.940Z,33.02
2018-07-24T14:20:47.853Z,33.36
2018-07-24T14:23:14.808Z,33.30
2018-07-24T14:25:41.784Z,33.11
2018-07-24T14:28:08.840Z,32.94
2018-07-24T14:30:35.750Z,32.74
2018-07-24T14:33:02.657Z,33.37
2018-07-24T14:35:29.563Z,32.58
2018-07-24T14:37:56.518Z,32.12
2018-07-24T14:40:23.661Z,31.80
2018-07-24T14:42:50.585Z,31.88
2018-07-24T14:45:17.500Z,31.96
2018-07-24T14:47:49.545Z,32.12
2018-07-24T14:50:16.597Z,31.69
2018-07-24T14:52:43.558Z,31.66
2018-07-24T14:55:11.027Z,31.35
2018-07-24T14:57:38.018Z,31.51
2018-07-24T15:00:05.685Z,31.56
2018-07-24T15:02:32.604Z,31.51
2018-07-24T15:04:59.536Z,31.76
2018-07-24T15:07:26.450Z,32.12
2018-07-24T15:09:53.389Z,32.55
2018-07-24T15:12:20.307Z,32.46
2018-07-24T15:14:47.263Z,31.94
2018-07-24T15:17:14.270Z,32.55
2018-07-24T15:19:41.093Z,32.37
2018-07-24T15:22:10.451Z,31.91
2018-07-24T15:24:39.095Z,31.95
2018-07-24T15:27:08.687Z,32.09
2018-07-24T15:29:37.514Z,32.38
2018-07-24T15:32:04.433Z,32.25
2018-07-24T15:34:31.539Z,32.21
2018-07-24T15:36:58.328Z,32.20
2018-07-24T15:39:25.248Z,31.86
2018-07-24T15:41:52.156Z,31.73
2018-07-24T15:44:19.268Z,32.17
2018-07-24T15:46:46.236Z,32.26
2018-07-24T15:49:13.136Z,32.23
2018-07-24T15:51:40.033Z,32.47
2018-07-24T15:54:06.985Z,32.29
2018-07-24T15:56:33.896Z,32.05
2018-07-24T15:59:00.840Z,31.93
2018-07-24T16:01:27.747Z,31.84
2018-07-24T16:03:54.664Z,31.77
2018-07-24T16:06:21.748Z,31.65
2018-07-24T16:08:48.687Z,31.56
2018-07-24T16:11:15.617Z,31.63
2018-07-24T16:13:42.555Z,31.77
2018-07-24T16:16:09.465Z,31.89
2018-07-24T16:18:36.375Z,32.20
2018-07-24T16:21:03.301Z,32.02
2018-07-24T16:23:30.206Z,32.02
2018-07-24T16:25:57.133Z,31.96
2018-07-24T16:28:24.288Z,32.07
2018-07-24T16:30:51.199Z,31.94
2018-07-24T16:33:18.095Z,32.04
2018-07-24T16:35:44.994Z,32.02
2018-07-24T16:38:11.889Z,31.84
2018-07-24T16:40:38.815Z,32.02
2018-07-24T16:43:06.152Z,31.93
2018-07-24T16:45:33.126Z,31.94
2018-07-24T16:48:00.025Z,31.73
2018-07-24T16:50:26.955Z,31.87
2018-07-24T16:52:53.835Z,31.59
2018-07-24T16:55:20.745Z,31.24
2018-07-24T16:57:47.653Z,31.20
2018-07-24T17:00:14.797Z,31.01
2018-07-24T17:02:41.695Z,31.18
2018-07-24T17:05:08.639Z,30.98
2018-07-24T17:07:35.555Z,30.94
2018-07-24T17:10:02.473Z,30.90
2018-07-24T17:12:29.365Z,30.80
2018-07-24T17:14:56.259Z,30.69
2018-07-24T17:17:23.164Z,30.67
2018-07-24T17:19:50.147Z,30.75
2018-07-24T17:22:17.052Z,30.62
2018-07-24T17:24:43.986Z,30.71
2018-07-24T17:27:10.880Z,30.49
2018-07-24T17:29:37.789Z,30.46
2018-07-24T17:32:04.948Z,30.31
2018-07-24T17:34:31.869Z,30.20
2018-07-24T17:36:58.775Z,30.16
2018-07-24T17:39:25.687Z,30.13
2018-07-24T17:41:52.666Z,30.21
2018-07-24T17:44:19.537Z,30.04
2018-07-24T17:46:46.440Z,30.00
2018-07-24T17:49:13.323Z,30.00
2018-07-24T17:51:40.226Z,29.98
2018-07-24T17:54:07.117Z,29.98
2018-07-24T17:56:34.025Z,29.81
2018-07-24T17:59:00.953Z,29.82
2018-07-24T18:01:27.808Z,29.73
2018-07-24T18:03:54.700Z,29.69
2018-07-24T18:06:21.629Z,29.53
2018-07-24T18:08:48.532Z,29.40
2018-07-24T18:11:15.474Z,29.27
2018-07-24T18:13:42.364Z,29.36
2018-07-24T18:16:09.262Z,29.34
2018-07-24T18:18:36.246Z,29.35
2018-07-24T18:21:03.162Z,29.20
2018-07-24T18:23:30.651Z,29.10
2018-07-24T18:25:57.582Z,29.07
2018-07-24T18:28:24.474Z,29.00
2018-07-24T18:30:51.733Z,28.90
2018-07-24T18:33:18.666Z,28.80
2018-07-24T18:35:45.512Z,28.65
2018-07-24T18:38:12.405Z,28.56
2018-07-24T18:40:39.301Z,28.47
2018-07-24T18:43:06.184Z,28.38
2018-07-24T18:45:33.088Z,28.28
2018-07-24T18:47:59.969Z,28.16
2018-07-24T18:50:26.869Z,28.10
2018-07-24T18:52:53.765Z,28.00
2018-07-24T18:55:20.678Z,27.89
2018-07-24T18:57:47.604Z,27.80
2018-07-24T19:00:14.533Z,27.65
2018-07-24T19:02:41.408Z,27.62
2018-07-24T19:05:08.363Z,27.60
2018-07-24T19:07:35.405Z,27.57
2018-07-24T19:10:02.459Z,27.52
2018-07-24T19:12:29.397Z,27.45
2018-07-24T19:14:56.301Z,27.30
2018-07-24T19:17:23.244Z,27.14
2018-07-24T19:19:50.133Z,27.13
2018-07-24T19:22:17.039Z,27.05
2018-07-24T19:24:43.944Z,27.01
2018-07-24T19:27:11.248Z,26.98
2018-07-24T19:29:38.149Z,27.02
2018-07-24T19:32:05.792Z,26.91
2018-07-24T19:34:33.371Z,26.72
2018-07-24T19:37:00.325Z,26.70
2018-07-24T19:39:27.374Z,26.61
2018-07-24T19:41:54.311Z,26.46
2018-07-24T19:44:21.748Z,26.38
2018-07-24T19:46:49.359Z,26.26
2018-07-24T19:49:16.669Z,26.21
2018-07-24T19:51:43.601Z,26.08
2018-07-24T19:54:10.497Z,25.97
2018-07-24T19:56:37.947Z,25.89
2018-07-24T19:59:04.856Z,25.76
2018-07-24T20:01:32.515Z,25.73
2018-07-24T20:04:00.012Z,25.68
2018-07-24T20:06:26.989Z,25.58
2018-07-24T20:08:53.876Z,25.46
2018-07-24T20:11:20.803Z,25.40
2018-07-24T20:13:48.464Z,25.29
2018-07-24T20:16:16.160Z,25.34
2018-07-24T20:18:43.614Z,25.22
2018-07-24T20:21:10.844Z,25.23
2018-07-24T20:23:38.549Z,25.17
2018-07-24T20:26:05.390Z,25.19
2018-07-24T20:28:32.843Z,25.04
2018-07-24T20:31:00.113Z,25.02
2018-07-24T20:33:27.396Z,24.99
2018-07-24T20:35:54.511Z,24.88
2018-07-24T20:38:21.543Z,24.84
2018-07-24T20:40:48.964Z,24.84
2018-07-24T20:43:16.494Z,24.81
2018-07-24T20:45:44.845Z,24.71
2018-07-24T20:48:12.128Z,24.65
2018-07-24T20:50:39.021Z,24.61
2018-07-24T20:53:05.944Z,24.52
2018-07-24T20:55:34.490Z,24.48
2018-07-24T20:58:02.340Z,24.31
2018-07-24T21:00:29.871Z,24.15
2018-07-24T21:02:57.060Z,24.05
2018-07-24T21:05:25.491Z,24.01
2018-07-24T21:07:52.448Z,23.93
2018-07-24T21:10:21.005Z,23.87
2018-07-24T21:12:49.470Z,23.78
2018-07-24T21:15:17.671Z,23.73
2018-07-24T21:17:44.987Z,23.69
2018-07-24T21:20:12.346Z,23.64
2018-07-24T21:22:39.502Z,23.62
2018-07-24T21:25:06.665Z,23.56
2018-07-24T21:27:34.341Z,23.50
2018-07-24T21:30:01.677Z,23.47
2018-07-24T21:32:28.594Z,23.42
2018-07-24T21:34:55.488Z,23.41
2018-07-24T21:37:22.412Z,23.43
2018-07-24T21:39:49.330Z,23.39
2018-07-24T21:42:16.274Z,23.35
2018-07-24T21:44:44.180Z,23.34
2018-07-24T21:47:11.095Z,23.32
2018-07-24T21:49:37.989Z,23.24
2018-07-24T21:52:05.376Z,23.26
2018-07-24T21:54:32.301Z,23.22
2018-07-24T21:57:01.085Z,23.08
2018-07-24T21:59:32.373Z,23.03
2018-07-24T22:01:59.550Z,22.98
2018-07-24T22:04:26.487Z,22.90
2018-07-24T22:06:53.449Z,22.84
2018-07-24T22:09:21.924Z,22.88
2018-07-24T22:11:49.037Z,22.81
2018-07-24T22:14:15.932Z,22.70
2018-07-24T22:16:42.920Z,22.64
2018-07-24T22:19:09.873Z,22.58
2018-07-24T22:21:36.898Z,22.61
2018-07-24T22:24:03.831Z,22.55
2018-07-24T22:26:30.714Z,22.52
2018-07-24T22:28:57.816Z,22.57
2018-07-24T22:31:24.723Z,22.48
2018-07-24T22:33:51.615Z,22.40
2018-07-24T22:36:18.495Z,22.33
2018-07-24T22:38:52.171Z,22.38
2018-07-24T22:41:19.165Z,22.33
2018-07-24T22:43:46.173Z,22.25
2018-07-24T22:46:13.472Z,22.25
2018-07-24T22:48:40.364Z,22.18
2018-07-24T22:51:07.285Z,22.14
2018-07-24T22:53:34.189Z,22.04
2018-07-24T22:56:01.754Z,22.07
2018-07-24T22:58:28.689Z,22.01
2018-07-24T23:00:55.567Z,21.94
2018-07-24T23:03:23.074Z,21.97
2018-07-24T23:05:50.014Z,21.92
2018-07-24T23:08:17.529Z,21.80
2018-07-24T23:10:44.464Z,21.79
2018-07-24T23:13:11.822Z,21.81
2018-07-24T23:15:39.449Z,21.79
2018-07-24T23:18:07.952Z,21.79
2018-07-24T23:20:35.076Z,21.65
2018-07-24T23:23:01.978Z,21.59
2018-07-24T23:25:28.896Z,21.58
2018-07-24T23:27:55.801Z,21.55
2018-07-24T23:30:22.692Z,21.55
2018-07-24T23:32:49.615Z,21.53
2018-07-24T23:35:16.539Z,21.55
2018-07-24T23:37:43.445Z,21.47
2018-07-24T23:40:10.344Z,21.35
2018-07-24T23:42:37.238Z,21.31
2018-07-24T23:45:04.262Z,21.31
2018-07-24T23:47:31.164Z,21.28
2018-07-24T23:49:58.064Z,21.26
2018-07-24T23:52:24.961Z,21.20
2018-07-24T23:54:51.872Z,21.20
2018-07-24T23:57:18.773Z,21.22
2018-07-24T23:59:45.685Z,21.23
